KBMT/BMT METAR and TAF weather

Enter ICAO airport designator
Station Type Date Time Source
KBMT METAR 2019/06/26 21:55 UTC NOAA

KBMT 262155Z AUTO 13004KT 10SM BKN037 BKN043 BKN050 31/23 A3010 RMK AO2 T03080234


Station Type Date Time Source
KBMT Decoded METAR 2019/06/26 21:55 UTC NOAA

Station name not available
Jun 26, 2019 - 05:55 PM EDT / 2019.06.26 2155 UTC
Wind: from the SE (130 degrees) at 5 MPH (4 KT):0
Visibility: 10 mile(s):0
Sky conditions: mostly cloudy
Temperature: 87.4 F (30.8 C)
Heat index: 95.7 F (35.4 C):1
Dew Point: 74.1 F (23.4 C)
Relative Humidity: 64%
Pressure (altimeter): 30.1 in. Hg (1019 hPa)
ob: KBMT 262155Z AUTO 13004KT 10SM BKN037 BKN043 BKN050 31/23 A3010 RMK AO2 T03080234
cycle: 22

Station Type Date Time Source
KBMT TAF UTC NOAA

Error!

Example: see airport list